Terminal Aerodrome Forecast
Issued by NWS Bismarck, ND

Home | Current Version | Previous Version | Text Only | Print | Product List | Glossary Off
Versions: 1 2 3 4 5 6 7 8 9 10 11 12 13 14 15 16 17 18 19 20 21 22

000
FTUS43 KBIS 291800 AAA
TAFISN
TAF AMD
KISN 291811Z 2918/3018 22007KT P6SM VCSH BKN080
      TEMPO 2919/2921 6SM -SHRA BKN060
     FM292100 25008KT P6SM SCT100
     FM300200 32009KT P6SM SCT250
     FM300300 02008KT P6SM BKN029=

USA.gov is the U.S. government's official web portal to all federal, state and local government web resources and services.